Time;durP1;ratioP1;P1;durP2;ratioP2;P2;SDS_P1;SDS_P2;PMS_P1;PMS_P2;Temp;Humidity;BMP_temperature;BMP_pressure;BME280_temperature;BME280_humidity;BME280_pressure;Samples;Min_cycle;Max_cycle;Signal;HPM_P1;HPM_P2
2021/07/13 00:00:34;;;;;;;0.00;0.00;;;22.50;98.60;;;;;;5069057;28;20029;-70
2021/07/13 00:03:02;;;;;;;0.00;0.00;;;22.50;98.20;;;;;;5053297;28;20033;-70
2021/07/13 00:05:29;;;;;;;0.20;0.20;;;22.50;98.10;;;;;;5053281;28;20028;-70
2021/07/13 00:07:55;;;;;;;0.00;0.00;;;22.60;97.90;;;;;;5053304;28;20365;-70
2021/07/13 00:10:26;;;;;;;0.00;0.00;;;22.50;97.70;;;;;;5053417;28;20029;-70
2021/07/13 00:12:53;;;;;;;0.00;0.00;;;22.50;97.50;;;;;;5053466;28;20037;-70
2021/07/13 00:15:28;;;;;;;0.00;0.00;;;22.50;97.50;;;;;;5053553;28;20074;-71
2021/07/13 00:17:56;;;;;;;0.00;0.00;;;22.50;97.40;;;;;;5052745;28;20060;-70
2021/07/13 00:20:22;;;;;;;0.00;0.00;;;22.50;97.40;;;;;;5053297;28;20120;-70
2021/07/13 00:22:48;;;;;;;0.00;0.00;;;22.50;97.80;;;;;;5053455;28;20108;-70
2021/07/13 00:25:17;;;;;;;0.00;0.00;;;22.50;98.00;;;;;;5053657;28;20057;-70
2021/07/13 00:27:43;;;;;;;0.00;0.00;;;22.50;97.90;;;;;;5053664;28;20025;-70
2021/07/13 00:30:11;;;;;;;0.00;0.00;;;22.50;97.90;;;;;;5053588;28;20048;-70
2021/07/13 00:32:38;;;;;;;0.00;0.00;;;22.50;97.80;;;;;;5053346;28;20033;-70
2021/07/13 00:35:04;;;;;;;0.00;0.00;;;22.50;97.80;;;;;;5053279;28;20020;-70
2021/07/13 00:37:30;;;;;;;0.00;0.00;;;22.50;97.80;;;;;;5053132;28;20036;-70
2021/07/13 00:39:56;;;;;;;0.00;0.00;;;22.60;97.60;;;;;;5053093;28;20033;-70
2021/07/13 00:42:22;;;;;;;0.00;0.00;;;22.50;97.60;;;;;;5053057;28;20029;-70
2021/07/13 00:44:48;;;;;;;0.00;0.00;;;22.50;97.20;;;;;;5053192;28;20103;-70
2021/07/13 00:47:21;;;;;;;0.00;0.00;;;22.50;96.60;;;;;;5053731;28;20582;-70
2021/07/13 00:49:47;;;;;;;0.00;0.00;;;22.30;96.10;;;;;;5053390;28;20064;-70
2021/07/13 00:52:13;;;;;;;0.00;0.00;;;22.20;96.50;;;;;;5052661;28;20475;-70
2021/07/13 00:54:41;;;;;;;0.00;0.00;;;22.20;97.30;;;;;;5053740;28;20071;-70
2021/07/13 00:57:09;;;;;;;0.00;0.00;;;22.30;98.00;;;;;;5053395;28;20025;-70
2021/07/13 00:59:41;;;;;;;0.00;0.00;;;22.30;98.20;;;;;;5053012;28;20032;-70
2021/07/13 01:02:09;;;;;;;0.00;0.00;;;22.30;98.40;;;;;;5053050;28;20033;-70
2021/07/13 01:04:37;;;;;;;0.00;0.00;;;22.40;98.50;;;;;;5053547;28;20393;-71
2021/07/13 01:07:20;;;;;;;0.00;0.00;;;22.50;98.50;;;;;;5053308;28;20029;-70
2021/07/13 01:09:46;;;;;;;0.00;0.00;;;22.50;98.60;;;;;;5053255;28;20037;-71
2021/07/13 01:12:45;;;;;;;0.00;0.00;;;22.60;98.90;;;;;;5053022;28;20031;-70
2021/07/13 01:15:17;;;;;;;0.00;0.00;;;22.60;98.50;;;;;;5052704;28;20053;-71
2021/07/13 01:18:03;;;;;;;0.00;0.00;;;22.70;98.70;;;;;;5053283;28;20056;-71
2021/07/13 01:20:53;;;;;;;0.00;0.00;;;22.80;98.50;;;;;;5052768;28;20455;-71
2021/07/13 01:23:47;;;;;;;0.00;0.00;;;22.80;98.60;;;;;;5068103;28;20029;-71
2021/07/13 01:26:36;;;;;;;0.00;0.00;;;22.90;98.50;;;;;;5052885;28;20029;-70
2021/07/13 01:29:08;;;;;;;0.08;0.08;;;22.90;98.80;;;;;;5055053;28;20463;-71
2021/07/13 01:31:37;;;;;;;0.00;0.00;;;23.00;98.80;;;;;;5056712;28;20363;-71
2021/07/13 01:34:09;;;;;;;0.00;0.00;;;23.00;98.80;;;;;;5056315;28;20142;-71
2021/07/13 01:36:44;;;;;;;0.00;0.00;;;23.00;98.40;;;;;;5056719;28;20039;-71
2021/07/13 01:39:12;;;;;;;0.00;0.00;;;23.10;98.40;;;;;;5056118;28;20036;-71
2021/07/13 01:41:39;;;;;;;0.00;0.00;;;23.10;98.20;;;;;;5056681;28;20367;-71
2021/07/13 01:44:06;;;;;;;0.00;0.00;;;23.10;98.00;;;;;;5055843;28;20108;-71
2021/07/13 01:46:32;;;;;;;0.00;0.00;;;23.10;98.00;;;;;;5056343;28;20406;-71
2021/07/13 01:48:59;;;;;;;0.00;0.00;;;23.10;97.80;;;;;;5055715;28;20024;-71
2021/07/13 01:51:27;;;;;;;0.00;0.00;;;23.10;97.80;;;;;;5055996;28;20094;-70
2021/07/13 01:53:55;;;;;;;0.00;0.00;;;23.10;97.80;;;;;;5054370;28;20045;-71
2021/07/13 01:56:22;;;;;;;0.00;0.00;;;23.10;97.80;;;;;;5056122;28;20025;-71
2021/07/13 01:58:48;;;;;;;0.00;0.00;;;23.10;97.90;;;;;;5055827;28;20391;-71
2021/07/13 02:01:19;;;;;;;0.00;0.00;;;23.10;98.00;;;;;;5056068;28;20025;-71
2021/07/13 02:03:48;;;;;;;0.00;0.00;;;23.10;98.00;;;;;;5055793;28;20051;-70
2021/07/13 02:06:17;;;;;;;0.00;0.00;;;23.10;98.00;;;;;;5055691;28;20029;-70
2021/07/13 02:08:44;;;;;;;0.00;0.00;;;23.10;98.10;;;;;;5055749;28;20356;-71
2021/07/13 02:11:10;;;;;;;0.00;0.00;;;23.10;98.20;;;;;;5055691;28;20207;-71
2021/07/13 02:13:36;;;;;;;0.00;0.00;;;23.10;97.90;;;;;;5055320;28;20099;-71
2021/07/13 02:16:05;;;;;;;0.00;0.00;;;23.10;97.80;;;;;;5055288;28;20075;-71
2021/07/13 02:18:30;;;;;;;0.00;0.00;;;23.10;98.00;;;;;;5055321;28;20033;-71
2021/07/13 02:20:56;;;;;;;0.00;0.00;;;23.20;98.20;;;;;;5055174;28;20028;-71
2021/07/13 02:23:22;;;;;;;0.00;0.00;;;23.20;98.40;;;;;;5055242;28;20061;-71
2021/07/13 02:25:51;;;;;;;0.00;0.00;;;23.20;98.50;;;;;;5055096;28;20463;-70
2021/07/13 02:28:38;;;;;;;0.00;0.00;;;23.30;98.40;;;;;;5055308;28;20095;-70
2021/07/13 02:31:17;;;;;;;0.00;0.00;;;23.40;97.90;;;;;;5055270;28;20056;-70
2021/07/13 02:33:50;;;;;;;0.00;0.00;;;23.40;97.90;;;;;;5055802;28;20017;-70
2021/07/13 02:36:20;;;;;;;0.00;0.00;;;23.40;98.10;;;;;;5055185;28;20378;-70
2021/07/13 02:38:47;;;;;;;0.00;0.00;;;23.40;98.30;;;;;;5055082;28;20025;-71
2021/07/13 02:41:17;;;;;;;0.00;0.00;;;23.40;98.40;;;;;;5054956;28;20348;-71
2021/07/13 02:43:44;;;;;;;0.00;0.00;;;23.50;98.70;;;;;;5055075;28;20528;-71
2021/07/13 02:46:10;;;;;;;0.00;0.00;;;23.50;98.80;;;;;;5054609;28;20502;-72
2021/07/13 02:48:40;;;;;;;0.00;0.00;;;23.60;98.80;;;;;;5054999;28;20028;-71
2021/07/13 02:51:09;;;;;;;0.00;0.00;;;23.70;99.00;;;;;;5055696;28;20025;-71
2021/07/13 02:53:36;;;;;;;0.00;0.00;;;23.70;99.20;;;;;;5055464;28;20044;-72
2021/07/13 02:56:05;;;;;;;0.00;0.00;;;23.80;99.50;;;;;;5054759;28;20096;-72
2021/07/13 02:58:32;;;;;;;0.00;0.00;;;23.90;99.30;;;;;;5054374;28;20068;-72
2021/07/13 03:00:58;;;;;;;0.00;0.00;;;24.00;99.00;;;;;;5055180;28;20029;-72
2021/07/13 03:03:24;;;;;;;0.00;0.00;;;24.00;98.70;;;;;;5054829;28;20112;-72
2021/07/13 03:05:53;;;;;;;0.00;0.00;;;24.10;98.60;;;;;;5055094;28;20060;-72
2021/07/13 03:08:22;;;;;;;0.00;0.00;;;24.00;98.70;;;;;;5054532;28;20028;-72
2021/07/13 03:10:53;;;;;;;0.00;0.00;;;24.10;98.80;;;;;;5055066;28;20112;-71
2021/07/13 03:13:24;;;;;;;0.00;0.00;;;24.10;98.60;;;;;;5054459;28;20036;-72
2021/07/13 03:15:50;;;;;;;0.75;0.43;;;24.20;98.50;;;;;;5055125;28;20123;-72
2021/07/13 03:18:17;;;;;;;0.00;0.00;;;24.20;98.30;;;;;;5054392;28;20438;-72
2021/07/13 03:20:54;;;;;;;0.00;0.00;;;24.20;98.50;;;;;;5054011;28;20064;-72
2021/07/13 03:23:22;;;;;;;0.00;0.00;;;24.20;98.40;;;;;;5054430;28;20040;-72
2021/07/13 03:25:49;;;;;;;0.00;0.00;;;24.20;98.60;;;;;;5054289;28;20021;-72
2021/07/13 03:28:17;;;;;;;0.30;0.20;;;24.30;98.60;;;;;;5054683;28;20029;-72
2021/07/13 03:30:45;;;;;;;0.00;0.00;;;24.30;98.70;;;;;;5054068;28;20037;-72
2021/07/13 03:33:12;;;;;;;0.00;0.00;;;24.30;98.80;;;;;;5054118;28;20020;-72
2021/07/13 03:35:38;;;;;;;0.00;0.00;;;24.40;99.00;;;;;;5054635;28;20021;-71
2021/07/13 03:38:05;;;;;;;0.00;0.00;;;24.50;99.10;;;;;;5053722;28;20379;-72
2021/07/13 03:40:31;;;;;;;0.00;0.00;;;24.50;99.20;;;;;;5054225;28;20033;-72
2021/07/13 03:42:58;;;;;;;0.00;0.00;;;24.60;99.20;;;;;;5054242;28;20025;-72
2021/07/13 03:45:28;;;;;;;0.00;0.00;;;24.60;99.20;;;;;;5053835;28;20033;-72
2021/07/13 03:47:56;;;;;;;0.00;0.00;;;24.70;99.60;;;;;;5054638;28;20104;-71
2021/07/13 03:50:26;;;;;;;1.10;0.10;;;24.80;99.60;;;;;;5054109;28;20171;-72
2021/07/13 03:52:52;;;;;;;0.00;0.00;;;24.80;99.30;;;;;;5052826;28;20375;-72
2021/07/13 03:55:17;;;;;;;0.00;0.00;;;24.90;99.50;;;;;;5054147;28;20033;-72
2021/07/13 03:57:43;;;;;;;0.00;0.00;;;25.00;99.40;;;;;;5054220;28;20035;-72
2021/07/13 04:00:15;;;;;;;0.00;0.00;;;25.10;99.40;;;;;;5053973;28;20456;-72
2021/07/13 04:02:42;;;;;;;0.00;0.00;;;25.10;99.30;;;;;;5053628;28;20108;-72
2021/07/13 04:05:09;;;;;;;0.13;0.10;;;25.20;99.20;;;;;;5053364;28;20475;-71
2021/07/13 04:07:35;;;;;;;0.00;0.00;;;25.20;99.30;;;;;;5053786;28;20075;-71
2021/07/13 04:10:03;;;;;;;0.00;0.00;;;25.20;99.00;;;;;;5053772;28;20025;-72
2021/07/13 04:12:29;;;;;;;0.00;0.00;;;25.30;99.10;;;;;;5054264;28;20064;-71
2021/07/13 04:14:54;;;;;;;0.00;0.00;;;25.30;99.10;;;;;;5053630;28;20057;-71
2021/07/13 04:17:20;;;;;;;0.00;0.00;;;25.40;99.30;;;;;;5053581;28;20032;-72
2021/07/13 04:19:46;;;;;;;0.00;0.00;;;25.40;99.30;;;;;;5053521;28;20037;-72
2021/07/13 04:22:11;;;;;;;0.00;0.00;;;25.40;99.30;;;;;;5035586;28;20391;-72
2021/07/13 04:24:37;;;;;;;0.00;0.00;;;25.50;99.30;;;;;;5068839;28;20029;-71
2021/07/13 04:27:03;;;;;;;0.00;0.00;;;25.50;99.10;;;;;;5053527;28;20025;-71
2021/07/13 04:29:29;;;;;;;0.00;0.00;;;25.60;99.20;;;;;;5053655;28;20082;-72
2021/07/13 04:31:54;;;;;;;0.00;0.00;;;25.60;99.30;;;;;;5053232;28;20029;-71
2021/07/13 04:34:20;;;;;;;0.00;0.00;;;25.70;99.30;;;;;;5053013;28;20060;-72
2021/07/13 04:36:46;;;;;;;0.00;0.00;;;25.70;99.20;;;;;;5053299;28;20032;-71
2021/07/13 04:39:12;;;;;;;0.00;0.00;;;25.80;99.20;;;;;;5052324;28;20044;-72
2021/07/13 04:41:38;;;;;;;0.00;0.00;;;25.80;99.10;;;;;;5053299;28;20025;-72
2021/07/13 04:44:04;;;;;;;0.00;0.00;;;25.80;99.00;;;;;;5053351;28;20075;-72
2021/07/13 04:46:30;;;;;;;0.00;0.00;;;25.90;99.20;;;;;;5053239;28;20111;-71
2021/07/13 04:48:57;;;;;;;0.00;0.00;;;25.90;99.00;;;;;;5053749;28;20040;-72
2021/07/13 04:51:23;;;;;;;0.00;0.00;;;25.90;99.10;;;;;;5052921;28;20039;-72
2021/07/13 04:53:50;;;;;;;0.00;0.00;;;26.00;98.90;;;;;;5053902;28;20045;-72
2021/07/13 04:56:15;;;;;;;0.00;0.00;;;26.00;98.80;;;;;;5068200;28;20040;-70
2021/07/13 04:58:41;;;;;;;0.17;0.17;;;26.00;98.80;;;;;;5052469;28;20033;-70
2021/07/13 05:01:07;;;;;;;0.00;0.00;;;26.10;98.80;;;;;;5052982;28;20025;-71
2021/07/13 05:03:32;;;;;;;0.00;0.00;;;26.10;98.80;;;;;;5054291;28;20032;-71
2021/07/13 05:05:58;;;;;;;0.05;0.05;;;26.10;99.00;;;;;;5056640;28;20025;-72
2021/07/13 05:08:24;;;;;;;0.00;0.00;;;26.20;99.00;;;;;;5056318;28;20384;-72
2021/07/13 05:10:51;;;;;;;0.00;0.00;;;26.20;99.10;;;;;;5056916;28;20459;-71
2021/07/13 05:13:17;;;;;;;0.00;0.00;;;26.30;99.10;;;;;;5056563;28;20485;-71
2021/07/13 05:15:43;;;;;;;0.00;0.00;;;26.30;99.20;;;;;;5056363;28;20407;-71
2021/07/13 05:18:10;;;;;;;0.00;0.00;;;26.40;99.30;;;;;;5056737;28;20024;-70
2021/07/13 05:20:37;;;;;;;0.00;0.00;;;26.50;99.40;;;;;;5056391;28;20070;-72
2021/07/13 05:23:09;;;;;;;0.00;0.00;;;26.50;99.80;;;;;;5071700;28;20482;-72
2021/07/13 05:25:36;;;;;;;0.00;0.00;;;26.60;99.70;;;;;;5055240;28;20426;-71
2021/07/13 05:28:02;;;;;;;0.00;0.00;;;26.70;99.70;;;;;;5056387;28;20033;-71
2021/07/13 05:30:28;;;;;;;0.00;0.00;;;26.80;99.70;;;;;;5056170;28;20057;-71
2021/07/13 05:32:54;;;;;;;0.00;0.00;;;26.90;99.80;;;;;;5056298;28;20052;-71
2021/07/13 05:35:21;;;;;;;0.00;0.00;;;26.90;99.50;;;;;;5055854;28;20025;-71
2021/07/13 05:37:47;;;;;;;0.00;0.00;;;27.00;99.60;;;;;;5056343;28;20187;-72
2021/07/13 05:40:14;;;;;;;0.00;0.00;;;27.10;99.40;;;;;;5055847;28;20052;-72
2021/07/13 05:42:40;;;;;;;0.00;0.00;;;27.10;99.40;;;;;;5055987;28;20035;-71
2021/07/13 05:45:07;;;;;;;0.00;0.00;;;27.20;99.40;;;;;;5055855;28;20029;-72
2021/07/13 05:47:33;;;;;;;0.00;0.00;;;27.20;99.30;;;;;;5056107;28;20025;-72
2021/07/13 05:49:59;;;;;;;0.00;0.00;;;27.20;99.40;;;;;;5056004;28;20470;-72
2021/07/13 05:52:25;;;;;;;0.10;0.10;;;27.30;99.10;;;;;;5055605;28;20057;-72
2021/07/13 05:54:51;;;;;;;0.00;0.00;;;27.30;99.20;;;;;;5055683;28;20539;-72
2021/07/13 05:57:17;;;;;;;0.00;0.00;;;27.40;99.40;;;;;;5056126;28;20033;-72
2021/07/13 05:59:43;;;;;;;0.00;0.00;;;27.40;99.40;;;;;;5055524;28;20115;-72
2021/07/13 06:02:08;;;;;;;2.08;0.45;;;27.50;99.30;;;;;;5056064;28;20063;-72
2021/07/13 06:04:34;;;;;;;0.00;0.00;;;27.60;99.40;;;;;;5056072;28;20044;-72
2021/07/13 06:07:00;;;;;;;0.00;0.00;;;27.60;99.20;;;;;;5056196;28;20163;-72
2021/07/13 06:09:27;;;;;;;0.00;0.00;;;27.70;99.30;;;;;;5055632;28;20444;-72
2021/07/13 06:11:54;;;;;;;0.00;0.00;;;27.70;99.10;;;;;;5055803;28;20487;-72
2021/07/13 06:14:20;;;;;;;0.05;0.05;;;27.80;99.20;;;;;;5054727;28;20108;-72
2021/07/13 06:16:46;;;;;;;0.00;0.00;;;27.80;99.10;;;;;;5055041;28;20490;-72
2021/07/13 06:19:12;;;;;;;0.00;0.00;;;27.90;99.20;;;;;;5055460;28;20112;-72
2021/07/13 06:21:37;;;;;;;0.00;0.00;;;27.90;99.00;;;;;;5055464;28;20025;-72
2021/07/13 06:24:03;;;;;;;0.00;0.00;;;28.00;99.10;;;;;;5055458;28;20036;-72
2021/07/13 06:26:29;;;;;;;0.00;0.00;;;28.00;98.90;;;;;;5055627;28;20025;-72
2021/07/13 06:28:55;;;;;;;0.00;0.00;;;28.10;99.20;;;;;;5055541;28;20027;-72
2021/07/13 06:31:20;;;;;;;0.00;0.00;;;28.10;99.20;;;;;;5055299;28;20021;-72
2021/07/13 06:33:46;;;;;;;0.00;0.00;;;28.10;99.20;;;;;;5055451;28;20028;-72
2021/07/13 06:36:12;;;;;;;0.00;0.00;;;28.20;99.00;;;;;;5055009;28;20025;-72
2021/07/13 06:38:38;;;;;;;0.00;0.00;;;28.20;98.60;;;;;;5055350;28;20025;-72
2021/07/13 06:41:03;;;;;;;0.00;0.00;;;28.20;98.70;;;;;;5054845;28;20099;-72
2021/07/13 06:43:29;;;;;;;0.00;0.00;;;28.30;98.70;;;;;;5054866;28;20028;-72
2021/07/13 06:45:55;;;;;;;0.00;0.00;;;28.30;98.80;;;;;;5054713;28;20032;-72
2021/07/13 06:48:20;;;;;;;0.00;0.00;;;28.40;98.80;;;;;;5054737;28;20036;-72
2021/07/13 06:50:46;;;;;;;4.88;3.40;;;28.40;99.00;;;;;;5054785;28;20071;-72
2021/07/13 06:53:12;;;;;;;16.42;11.65;;;28.40;97.50;;;;;;5054716;28;20060;-72
2021/07/13 06:55:37;;;;;;;18.40;11.20;;;28.50;94.50;;;;;;5054661;28;20029;-72
2021/07/13 06:58:03;;;;;;;13.57;10.65;;;28.50;93.30;;;;;;5054316;28;20482;-72
2021/07/13 07:00:29;;;;;;;11.95;10.38;;;28.40;92.50;;;;;;5054779;28;20392;-72
2021/07/13 07:02:54;;;;;;;14.52;10.93;;;28.40;91.80;;;;;;5054561;28;20024;-71
2021/07/13 07:05:20;;;;;;;14.45;10.77;;;28.40;91.40;;;;;;5054494;28;20028;-71
2021/07/13 07:07:50;;;;;;;14.13;11.27;;;28.50;90.90;;;;;;5054541;28;20104;-71
2021/07/13 07:10:17;;;;;;;15.00;10.27;;;28.60;90.30;;;;;;5054206;28;20430;-71
2021/07/13 07:12:44;;;;;;;12.20;10.32;;;28.70;90.00;;;;;;5054367;28;20078;-72
2021/07/13 07:15:10;;;;;;;17.20;10.45;;;28.80;89.50;;;;;;5054238;28;20032;-70
2021/07/13 07:17:53;;;;;;;19.27;9.98;;;28.90;88.40;;;;;;5054558;28;20455;-72
2021/07/13 07:20:24;;;;;;;14.67;10.90;;;29.00;87.50;;;;;;5054134;28;20033;-71
2021/07/13 07:22:50;;;;;;;14.70;11.18;;;29.20;86.40;;;;;;5054134;28;20025;-71
2021/07/13 07:25:16;;;;;;;12.73;10.95;;;29.20;84.80;;;;;;5053969;28;20048;-70
2021/07/13 07:27:43;;;;;;;17.10;11.13;;;29.30;83.30;;;;;;5054021;28;20021;-70
2021/07/13 07:30:10;;;;;;;13.63;11.65;;;29.30;82.80;;;;;;5053954;28;20379;-71
2021/07/13 07:32:38;;;;;;;18.90;12.52;;;29.40;82.20;;;;;;5052653;28;20141;-72
2021/07/13 07:35:06;;;;;;;15.13;12.38;;;29.40;81.20;;;;;;5053598;28;20036;-72
2021/07/13 07:37:33;;;;;;;21.75;12.85;;;29.50;80.50;;;;;;5053991;28;20029;-72
2021/07/13 07:39:59;;;;;;;17.70;12.00;;;29.50;79.80;;;;;;5054295;28;20112;-72
2021/07/13 07:42:25;;;;;;;17.95;13.32;;;29.50;79.50;;;;;;5053845;28;20096;-70
2021/07/13 07:44:50;;;;;;;16.27;11.65;;;29.60;79.30;;;;;;5053798;28;20509;-71
2021/07/13 07:47:16;;;;;;;19.88;12.00;;;29.60;78.90;;;;;;5053483;28;20024;-71
2021/07/13 07:49:42;;;;;;;16.60;12.80;;;29.70;78.20;;;;;;5053197;28;20043;-71
2021/07/13 07:52:09;;;;;;;17.33;13.27;;;29.80;77.00;;;;;;5053538;28;20103;-71
2021/07/13 07:54:34;;;;;;;21.35;15.32;;;29.80;76.90;;;;;;5053605;28;20025;-71
2021/07/13 07:57:00;;;;;;;24.70;15.40;;;29.80;76.10;;;;;;5053261;28;20126;-71
2021/07/13 07:59:26;;;;;;;23.75;15.63;;;29.80;75.50;;;;;;5053173;28;20069;-71
2021/07/13 08:01:52;;;;;;;23.13;15.82;;;29.80;75.40;;;;;;5053678;28;20025;-71
2021/07/13 08:04:18;;;;;;;29.25;16.10;;;29.90;75.30;;;;;;5053437;28;20032;-71
2021/07/13 08:06:43;;;;;;;23.70;15.77;;;30.00;74.70;;;;;;5053476;28;20023;-71
2021/07/13 08:09:09;;;;;;;23.25;15.93;;;30.00;74.60;;;;;;5053114;28;20033;-72
2021/07/13 08:11:36;;;;;;;23.50;15.65;;;30.00;74.40;;;;;;5053318;28;20075;-72
2021/07/13 08:14:04;;;;;;;31.42;16.50;;;30.00;74.00;;;;;;5068755;28;20021;-71
2021/07/13 08:16:31;;;;;;;21.23;15.25;;;30.10;73.80;;;;;;5053096;28;20078;-72
2021/07/13 08:18:57;;;;;;;28.75;15.43;;;30.20;73.40;;;;;;5053125;28;20036;-72
2021/07/13 08:21:22;;;;;;;23.33;15.23;;;30.30;73.40;;;;;;5053332;28;20025;-72
2021/07/13 08:23:48;;;;;;;25.08;16.25;;;30.40;73.00;;;;;;5053089;28;20495;-72
2021/07/13 08:26:14;;;;;;;24.02;16.58;;;30.60;72.30;;;;;;5053025;28;20040;-71
2021/07/13 08:28:40;;;;;;;18.05;15.38;;;30.70;71.70;;;;;;5053541;28;20064;-71
2021/07/13 08:31:06;;;;;;;23.55;17.58;;;30.80;71.50;;;;;;5053432;28;20025;-70
2021/07/13 08:33:32;;;;;;;20.65;15.80;;;30.90;70.70;;;;;;5053049;28;20375;-71
2021/07/13 08:35:58;;;;;;;19.02;15.38;;;31.10;70.40;;;;;;5053242;28;20103;-71
2021/07/13 08:38:24;;;;;;;19.58;15.00;;;31.20;70.20;;;;;;5054780;28;20021;-72
2021/07/13 08:40:49;;;;;;;23.08;14.88;;;31.40;69.50;;;;;;5057387;28;20037;-71
2021/07/13 08:43:15;;;;;;;20.10;15.85;;;31.60;69.30;;;;;;5057412;28;20025;-71
2021/07/13 08:45:42;;;;;;;22.60;16.30;;;31.70;68.50;;;;;;5057093;28;20029;-71
2021/07/13 08:48:12;;;;;;;20.17;14.70;;;31.90;67.50;;;;;;5056966;28;20029;-69
2021/07/13 08:50:38;;;;;;;17.58;13.75;;;32.10;66.80;;;;;;5056934;28;20056;-71
2021/07/13 08:53:05;;;;;;;25.80;14.88;;;32.20;66.60;;;;;;5057368;28;20085;-71
2021/07/13 08:55:30;;;;;;;16.02;13.40;;;32.40;65.90;;;;;;5056916;28;20057;-71
2021/07/13 08:57:56;;;;;;;19.75;14.90;;;32.50;64.70;;;;;;5056869;28;20075;-71
2021/07/13 09:00:22;;;;;;;17.88;15.38;;;32.60;64.00;;;;;;5056802;28;20056;-71
2021/07/13 09:03:04;;;;;;;30.98;15.75;;;32.70;63.30;;;;;;5056729;28;20021;-71
2021/07/13 09:05:41;;;;;;;18.45;14.55;;;32.80;63.00;;;;;;5056923;28;20091;-71
2021/07/13 09:08:17;;;;;;;20.10;14.63;;;32.90;62.70;;;;;;5056992;28;20033;-72
2021/07/13 09:11:17;;;;;;;16.52;13.57;;;33.10;62.20;;;;;;5055800;28;20033;-72
2021/07/13 09:13:46;;;;;;;16.23;13.30;;;33.40;62.00;;;;;;5056641;28;20098;-72
2021/07/13 09:16:15;;;;;;;19.15;13.65;;;33.60;61.70;;;;;;5056547;28;20064;-76
2021/07/13 09:18:46;;;;;;;19.25;13.73;;;33.90;61.40;;;;;;5056516;28;20021;-72
2021/07/13 09:21:15;;;;;;;15.77;13.32;;;34.10;60.40;;;;;;5056399;28;20033;-72
2021/07/13 09:24:06;;;;;;;18.17;12.85;;;34.30;59.90;;;;;;5056070;28;20469;-72
2021/07/13 09:26:36;;;;;;;16.83;12.40;;;34.50;59.70;;;;;;5057198;28;20044;-72
2021/07/13 09:29:02;;;;;;;15.20;11.57;;;34.70;59.20;;;;;;5056596;28;20029;-71
2021/07/13 09:31:28;;;;;;;15.15;12.98;;;34.90;59.00;;;;;;5056053;28;20035;-72
2021/07/13 09:33:53;;;;;;;15.20;13.65;;;35.10;58.50;;;;;;5056144;28;20021;-72
2021/07/13 09:36:19;;;;;;;16.08;12.43;;;35.30;58.10;;;;;;5055491;28;20029;-72
2021/07/13 09:38:54;;;;;;;16.40;13.88;;;35.50;57.70;;;;;;5055864;28;20029;-71
2021/07/13 09:41:36;;;;;;;22.08;14.65;;;35.80;57.00;;;;;;5055841;28;20060;-71
2021/07/13 09:44:05;;;;;;;45.75;17.42;;;35.90;56.30;;;;;;5056431;28;20084;-72
2021/07/13 09:46:40;;;;;;;17.48;13.82;;;36.20;56.00;;;;;;5055834;28;20021;-72
2021/07/13 09:49:24;;;;;;;28.48;15.48;;;36.40;55.30;;;;;;5071900;28;20409;-72
2021/07/13 09:52:05;;;;;;;19.88;15.80;;;36.70;55.00;;;;;;5055784;28;20033;-72
2021/07/13 09:54:38;;;;;;;18.60;15.70;;;37.00;54.50;;;;;;5055799;28;20479;-72
2021/07/13 09:57:14;;;;;;;26.85;15.65;;;37.30;53.90;;;;;;5055476;28;20082;-71
2021/07/13 09:59:40;;;;;;;20.35;15.13;;;37.50;53.50;;;;;;5055761;28;20047;-73
2021/07/13 10:02:09;;;;;;;23.20;15.75;;;37.60;53.40;;;;;;5056109;28;20070;-73
2021/07/13 10:04:39;;;;;;;18.33;13.80;;;37.80;52.60;;;;;;5055832;28;20087;-73
2021/07/13 10:07:11;;;;;;;20.30;14.88;;;38.00;52.60;;;;;;5055408;28;20029;-72
2021/07/13 10:09:42;;;;;;;22.38;14.82;;;38.20;52.00;;;;;;5055608;28;20028;-72
2021/07/13 10:12:11;;;;;;;21.55;16.15;;;38.40;51.70;;;;;;5055557;28;20048;-72
2021/07/13 10:14:45;;;;;;;17.88;15.23;;;38.60;51.50;;;;;;5055386;28;20029;-72
2021/07/13 10:17:10;;;;;;;;;;;38.80;51.20;;;;;;5055772;28;20061;-73
2021/07/13 10:20:00;;;;;;;18.05;14.20;;;38.90;52.50;;;;;;5055420;28;19963;-73
2021/07/13 10:22:27;;;;;;;14.70;13.00;;;39.10;51.00;;;;;;5055787;28;20025;-71
2021/07/13 10:24:57;;;;;;;30.35;14.95;;;39.30;50.80;;;;;;5055233;28;20029;-73
2021/07/13 10:27:35;;;;;;;14.77;13.20;;;39.50;50.20;;;;;;5055362;28;20017;-73
2021/07/13 10:30:08;;;;;;;15.57;12.40;;;39.70;49.70;;;;;;5055073;28;20036;-73
2021/07/13 10:32:41;;;;;;;16.85;15.10;;;39.80;49.10;;;;;;5055201;28;20045;-73
2021/07/13 10:35:23;;;;;;;19.67;14.32;;;40.00;48.80;;;;;;5054943;28;20116;-71
2021/07/13 10:37:53;;;;;;;19.35;13.82;;;40.20;48.50;;;;;;5054898;28;20036;-71
2021/07/13 10:40:25;;;;;;;15.07;12.40;;;40.40;48.40;;;;;;5054829;28;20033;-73
2021/07/13 10:42:55;;;;;;;20.40;13.00;;;40.60;48.20;;;;;;5054792;28;20025;-75
2021/07/13 10:45:36;;;;;;;21.20;14.80;;;40.70;47.90;;;;;;5054831;28;20061;-76
2021/07/13 10:48:20;;;;;;;31.23;14.02;;;40.90;47.70;;;;;;5055213;28;20025;-76
2021/07/13 10:50:48;;;;;;;30.38;14.50;;;41.00;47.30;;;;;;5054117;28;20111;-75
2021/07/13 10:53:15;;;;;;;21.67;13.65;;;41.10;46.80;;;;;;5054675;28;20528;-76
2021/07/13 10:55:45;;;;;;;16.10;11.25;;;41.10;46.90;;;;;;5054236;28;20017;-75
2021/07/13 10:58:10;;;;;;;18.38;12.20;;;41.20;46.50;;;;;;5069933;28;20383;-75
2021/07/13 11:00:51;;;;;;;15.52;11.55;;;41.30;46.20;;;;;;5054495;28;20049;-75
2021/07/13 11:03:29;;;;;;;14.93;10.82;;;41.50;45.80;;;;;;5054510;28;20444;-76
2021/07/13 11:05:55;;;;;;;16.30;10.88;;;41.70;44.60;;;;;;5054029;28;20023;-76
2021/07/13 11:08:39;;;;;;;21.10;10.65;;;41.90;44.30;;;;;;5054333;28;20116;-80
2021/07/13 11:11:28;;;;;;;9.23;8.00;;;42.10;44.10;;;;;;5054560;28;20104;-75
2021/07/13 11:14:05;;;;;;;6.53;5.97;;;42.30;43.60;;;;;;5050675;28;20029;-75
2021/07/13 11:16:36;;;;;;;7.88;6.88;;;42.50;42.00;;;;;;5054258;28;20025;-76
2021/07/13 11:19:12;;;;;;;7.25;5.90;;;42.80;41.40;;;;;;5052689;28;20045;-75
2021/07/13 11:21:46;;;;;;;8.80;6.57;;;43.00;40.90;;;;;;5054717;28;20033;-76
2021/07/13 11:24:17;;;;;;;10.35;7.35;;;43.20;40.80;;;;;;5053026;28;20068;-76
2021/07/13 11:26:46;;;;;;;10.48;6.95;;;43.50;40.60;;;;;;5052787;28;20483;-76
2021/07/13 11:29:25;;;;;;;9.27;6.25;;;43.70;40.00;;;;;;5054171;28;20037;-75
2021/07/13 11:32:02;;;;;;;15.30;7.35;;;43.80;39.50;;;;;;5054455;28;20021;-74
2021/07/13 11:34:37;;;;;;;7.80;6.05;;;43.90;39.40;;;;;;5069271;28;20035;-75
2021/07/13 11:37:04;;;;;;;8.88;6.47;;;44.00;39.20;;;;;;5054103;28;20371;-77
2021/07/13 11:39:33;;;;;;;11.25;6.63;;;44.20;39.30;;;;;;5054391;28;20037;-75
2021/07/13 11:42:08;;;;;;;12.85;7.10;;;44.30;39.10;;;;;;5054106;28;20071;-75
2021/07/13 11:44:35;;;;;;;8.55;6.60;;;44.50;39.00;;;;;;5054218;28;20086;-79
2021/07/13 11:47:02;;;;;;;11.82;6.32;;;44.70;38.80;;;;;;5054170;28;20165;-75
2021/07/13 11:49:33;;;;;;;8.63;7.53;;;44.80;38.50;;;;;;5053610;28;20033;-77
2021/07/13 11:52:01;;;;;;;10.60;7.72;;;44.90;38.80;;;;;;5053666;28;20037;-77
2021/07/13 11:54:38;;;;;;;8.20;7.07;;;45.00;38.90;;;;;;5053838;28;20132;-77
2021/07/13 11:57:07;;;;;;;8.98;7.68;;;45.20;38.60;;;;;;5053211;28;20470;-76
2021/07/13 11:59:34;;;;;;;11.85;7.15;;;45.30;38.30;;;;;;5054015;28;20083;-76
2021/07/13 12:02:07;;;;;;;9.60;7.20;;;45.40;38.20;;;;;;5053520;28;20029;-76
2021/07/13 12:04:48;;;;;;;10.82;7.65;;;45.60;38.20;;;;;;5053518;28;20032;-76
2021/07/13 12:07:14;;;;;;;15.05;8.43;;;45.80;38.30;;;;;;5053156;28;20036;-76
2021/07/13 12:09:40;;;;;;;9.23;8.07;;;45.90;38.10;;;;;;5052975;28;20115;-76
2021/07/13 12:12:17;;;;;;;9.48;8.20;;;46.00;38.10;;;;;;5052651;28;20082;-75
2021/07/13 12:14:52;;;;;;;12.82;10.02;;;46.20;38.00;;;;;;5053495;28;20025;-75
2021/07/13 12:17:21;;;;;;;18.45;10.05;;;46.30;37.90;;;;;;5053232;28;20107;-76
2021/07/13 12:19:47;;;;;;;16.88;10.35;;;46.40;37.60;;;;;;5053308;28;20090;-75
2021/07/13 12:22:20;;;;;;;10.25;9.05;;;46.60;37.60;;;;;;5053108;28;20043;-76
2021/07/13 12:24:48;;;;;;;13.85;9.27;;;46.70;37.30;;;;;;5053908;28;20032;-75
2021/07/13 12:27:18;;;;;;;12.18;9.82;;;46.80;37.20;;;;;;5052412;28;20070;-83
2021/07/13 12:29:51;;;;;;;10.20;9.07;;;47.00;37.00;;;;;;5053167;28;20459;-76
2021/07/13 12:32:17;;;;;;;;;;;47.10;36.80;;;;;;5053856;28;20371;-76
2021/07/13 12:34:45;;;;;;;11.48;8.60;;;47.30;38.40;;;;;;5052737;28;20361;-76
2021/07/13 12:37:10;;;;;;;11.80;9.73;;;47.40;36.70;;;;;;5051656;28;20036;-75
2021/07/13 12:39:38;;;;;;;13.32;9.07;;;47.40;36.30;;;;;;5052564;28;20030;-83
2021/07/13 12:42:09;;;;;;;8.52;6.88;;;47.50;36.10;;;;;;5052028;28;20063;-76
2021/07/13 12:44:47;;;;;;;14.68;8.05;;;47.60;35.50;;;;;;5052983;28;20087;-76
2021/07/13 12:47:35;;;;;;;7.55;5.78;;;47.70;35.30;;;;;;5053579;28;20021;-75
2021/07/13 12:50:04;;;;;;;5.78;5.22;;;47.70;34.80;;;;;;5052325;28;20039;-76